Share

Pago Pago, AS

10:55 PM SST on April 24, 2014 (GMT -1100)
Kona International At Keahole (PHKO) Elev 43 ft | 19.74 °N, 156.05 °W | Change Station

Current weather conditions updated 1 hour ago

Light Rain
Light Rain
77 °F
Feels Like 77 °F
N
9
Wind Variable Wind from WSW
Sunrise 6:30 AM
Sunset 6:10 PM
Moon Waning Crescent

Tomorrow is forecast to be nearly the same temperature as today. Showers and thunderstorms.

Pressure 30.07 in
Visibility 10.0 miles
Clouds Few 3800 ft
Mostly Cloudy 4800 ft
Overcast 6000 ft
Dew Point 70 °F
Humidity 79%
Rainfall 0.03 in
Snow Depth Not available.
UV 0 out of 16
Pollen Not available.
Air Quality Not available.
Flu Activity
METAR PHKO 250853Z AUTO 25008KT 10SM -RA FEW038 BKN048 OVC060 25/21 A3006 RMK AO2 RAB08 SLP181 P0000 60000 T02500211 51011 TSNO

More Conditions Fewer Conditions

Pressure 30.07 in
Visibility 10.0 miles
Clouds Few 3800 ft
Mostly Cloudy 4800 ft
Overcast 6000 ft
Dew Point 70 °F
Humidity 79%
Rainfall 0.03 in
Snow Depth Not available.
UV 0 out of 16
Pollen Not available.
Air Quality Not available.
Flu Activity
METAR PHKO 250853Z AUTO 25008KT 10SM -RA FEW038 BKN048 OVC060 25/21 A3006 RMK AO2 RAB08 SLP181 P0000 60000 T02500211 51011 TSNO

More Conditions Fewer Conditions

10-Day Weather Forecast

Almanac

Astronomy

Apr. 24, 2014 Rise Set
Actual Time 6:30 AM SST 6:10 PM SST
Civil Twilight 6:09 AM SST 6:32 PM SST
Nautical Twilight 5:43 AM SST 6:57 PM SST
Astronomical Twilight 5:18 AM SST 7:23 PM SST
Moon 2:23 AM SST (4/24) 2:58 PM SST (4/24)
Length of Visible Light 12h 23m
Length of Day
11h 39m
Tomorrow will be 0m 42s shorter.
Waning Crescent, 17% of the Moon is Illuminated
Apr 25
Waning Crescent
Apr 29
New
May 6
First Quarter
May 14
Full
May 21
Last Quarter

Community

  • Storm Clouds & Sunset
    Storm Clouds & Sunset
  • Deer in evening light
    Deer in evening light
  • Critter
    Critter
  • Jone Runs Falls
    Jone Runs Falls
  • Easter in Shenandoah National Park
    Easter in Shenandoah National Park

WunderPhotos

Upload Photos

1,704,876 photos uploaded!

WunderBlogs® & News

Nearby

Snow Depth

Station Depth Elevation
No new snow has been reported.

Coastal Water Temperatures

Place Temperature
No Stations Reporting

Earthquake Activity

City Distance Mag. Time & Date
No recent earthquake activity has been reported nearby.
Minimum magnitude displayed is 2.5.

Nearby Weather Stations

There are no personal weather stations in this area.

What do you think?

We're not finished. Please let us know what you like, what you don't like, and what you are still missing.